Time;durP1;ratioP1;P1;durP2;ratioP2;P2;SDS_P1;SDS_P2;PMS_P1;PMS_P2;Temp;Humidity;BMP_temperature;BMP_pressure;BME280_temperature;BME280_humidity;BME280_pressure;Samples;Min_cycle;Max_cycle;Signal;HPM_P1;HPM_P2
2023/03/21 00:01:56;;;;;;;31.80;22.20;;;;;;;8.91;83.67;100302.63;102446;279;121392;-57
2023/03/21 00:04:35;;;;;;;36.60;24.70;;;;;;;8.91;83.75;100302.19;102301;279;103726;-55
2023/03/21 00:07:10;;;;;;;34.30;25.60;;;;;;;8.86;83.77;100299.73;102545;278;114223;-54
2023/03/21 00:09:45;;;;;;;33.90;22.60;;;;;;;8.81;83.72;100299.67;102540;278;96328;-59
2023/03/21 00:12:24;;;;;;;32.70;22.90;;;;;;;8.79;83.66;100296.82;102522;279;96759;-59
2023/03/21 00:15:03;;;;;;;32.80;23.00;;;;;;;8.77;83.71;100297.73;102467;279;120950;-59
2023/03/21 00:17:43;;;;;;;31.10;21.20;;;;;;;8.74;83.67;100293.33;102544;279;104685;-57
2023/03/21 00:20:22;;;;;;;30.80;21.80;;;;;;;8.73;83.71;100293.02;102433;279;114432;-54
2023/03/21 00:23:02;;;;;;;28.90;21.40;;;;;;;8.73;83.72;100291.29;102490;279;96665;-55
2023/03/21 00:25:42;;;;;;;30.30;20.90;;;;;;;8.70;83.73;100291.04;102459;279;97062;-53
2023/03/21 00:28:22;;;;;;;32.70;21.10;;;;;;;8.71;83.72;100289.64;102435;279;120841;-53
2023/03/21 00:31:04;;;;;;;32.10;22.40;;;;;;;8.68;83.85;100287.35;102404;279;104208;-57
2023/03/21 00:33:47;;;;;;;31.60;21.10;;;;;;;8.69;83.85;100287.10;102360;279;114800;-57
2023/03/21 00:36:35;;;;;;;31.00;20.70;;;;;;;8.70;83.73;100284.77;102417;279;95073;-53
2023/03/21 00:39:09;;;;;;;31.70;22.20;;;;;;;8.69;83.78;100283.55;102279;281;96768;-57
2023/03/21 00:41:50;;;;;;;30.20;21.90;;;;;;;8.66;83.78;100282.74;102419;279;121111;-57
2023/03/21 00:44:25;;;;;;;33.20;22.40;;;;;;;8.66;83.86;100285.68;102407;280;105880;-54
2023/03/21 00:47:02;;;;;;;35.00;23.20;;;;;;;8.61;83.88;100287.16;102394;279;113738;-54
2023/03/21 00:49:37;;;;;;;35.60;23.60;;;;;;;8.61;83.85;100286.02;102280;280;95782;-54
2023/03/21 00:52:10;;;;;;;;;;;;;;;8.62;83.85;100282.48;102428;279;97882;-54
2023/03/21 00:54:50;;;;;;;32.80;21.90;;;;;;;8.62;83.85;100283.09;102424;279;121009;-57
2023/03/21 00:57:27;;;;;;;35.70;23.20;;;;;;;8.58;83.92;100285.20;102416;279;106076;-58
2023/03/21 01:00:09;;;;;;;31.70;22.50;;;;;;;8.58;83.88;100286.52;102423;279;114168;-57
2023/03/21 01:02:56;;;;;;;34.50;21.60;;;;;;;8.57;83.98;100285.11;102432;279;96002;-58
2023/03/21 01:08:23;;;;;;;32.20;21.00;;;;;;;8.56;84.06;100280.83;102379;279;120049;-58
2023/03/21 01:11:07;;;;;;;31.80;20.70;;;;;;;8.59;84.13;100278.02;102436;279;106165;-59
2023/03/21 01:13:50;;;;;;;31.80;20.90;;;;;;;8.55;84.13;100277.00;102417;279;114970;-60
2023/03/21 01:16:27;;;;;;;32.50;20.80;;;;;;;8.53;84.05;100278.73;102377;279;97169;-59
2023/03/21 01:19:05;;;;;;;30.10;20.70;;;;;;;8.49;84.07;100276.67;102455;279;98324;-57
2023/03/21 01:21:41;;;;;;;30.10;20.30;;;;;;;8.50;84.25;100275.73;102526;279;120570;-58
2023/03/21 01:24:17;;;;;;;29.40;20.80;;;;;;;8.50;84.23;100275.86;102589;279;106015;-57
2023/03/21 01:26:55;;;;;;;28.70;20.30;;;;;;;8.45;84.18;100271.09;102534;279;112806;-57
2023/03/21 01:29:30;;;;;;;30.70;21.00;;;;;;;8.42;84.32;100269.33;102529;279;93832;-59
2023/03/21 01:32:05;;;;;;;32.70;21.10;;;;;;;8.37;84.19;100268.75;102503;279;95345;-59
2023/03/21 01:34:42;;;;;;;30.40;20.60;;;;;;;8.36;84.22;100269.10;102521;279;120458;-56
2023/03/21 01:37:25;;;;;;;29.70;19.50;;;;;;;8.32;84.18;100269.33;102501;279;104525;-54
2023/03/21 01:40:11;;;;;;;30.60;20.50;;;;;;;8.29;84.34;100265.16;102506;279;113925;-54
2023/03/21 01:42:50;;;;;;;31.90;20.20;;;;;;;8.26;84.34;100264.98;102481;279;95950;-53
2023/03/21 01:46:10;;;;;;;31.00;19.70;;;;;;;8.19;84.40;100262.81;102560;279;96638;-58
2023/03/21 01:48:53;;;;;;;27.30;19.00;;;;;;;8.19;84.53;100262.24;102518;279;120351;-57
2023/03/21 01:51:40;;;;;;;29.80;19.70;;;;;;;8.25;84.47;100262.31;102520;279;104557;-57
2023/03/21 01:54:23;;;;;;;27.70;19.10;;;;;;;8.25;84.64;100259.42;102362;279;114744;-54
2023/03/21 01:57:07;;;;;;;28.90;19.30;;;;;;;8.30;84.64;100256.70;102565;279;96946;-54
2023/03/21 01:59:50;;;;;;;29.60;19.80;;;;;;;8.30;84.69;100255.02;102547;279;96866;-57
2023/03/21 02:02:28;;;;;;;32.50;20.40;;;;;;;8.35;84.70;100254.83;102542;279;119765;-58
2023/03/21 02:05:08;;;;;;;26.00;19.50;;;;;;;8.34;84.78;100254.27;102566;279;105787;-54
2023/03/21 02:07:52;;;;;;;28.20;19.90;;;;;;;8.42;84.88;100253.07;102546;279;112895;-54
2023/03/21 02:10:32;;;;;;;30.30;20.90;;;;;;;8.42;84.86;100252.97;102557;279;95817;-54
2023/03/21 02:13:08;;;;;;;33.60;21.10;;;;;;;8.38;84.91;100251.77;102412;279;98067;-54
2023/03/21 02:15:56;;;;;;;31.60;19.90;;;;;;;8.38;84.73;100252.45;102556;279;120579;-59
2023/03/21 02:18:44;;;;;;;31.60;19.60;;;;;;;8.35;84.77;100252.85;102500;279;106535;-59
2023/03/21 02:22:05;;;;;;;27.80;19.20;;;;;;;8.29;84.74;100256.09;102416;279;115507;-53
2023/03/21 02:25:17;;;;;;;28.70;20.00;;;;;;;8.24;84.93;100259.90;102441;279;96201;-59
2023/03/21 02:28:02;;;;;;;30.50;20.60;;;;;;;8.21;85.04;100265.68;102492;279;97006;-59
2023/03/21 02:31:13;;;;;;;27.30;19.30;;;;;;;8.24;85.13;100263.50;102446;279;120028;-59
2023/03/21 02:34:28;;;;;;;26.60;18.20;;;;;;;8.28;85.13;100261.57;102351;279;104545;-60
2023/03/21 02:37:20;;;;;;;27.80;17.70;;;;;;;8.36;85.12;100259.57;102406;279;114631;-57
2023/03/21 02:40:09;;;;;;;25.40;17.60;;;;;;;8.43;85.09;100257.84;102395;279;96319;-58
2023/03/21 02:43:02;;;;;;;23.80;16.90;;;;;;;8.47;85.06;100256.77;102506;272;96473;-57
2023/03/21 02:45:48;;;;;;;23.20;15.60;;;;;;;8.47;85.06;100255.26;102446;280;120969;-58
2023/03/21 02:48:31;;;;;;;26.10;17.00;;;;;;;8.49;85.03;100255.52;102492;279;105300;-58
2023/03/21 02:51:11;;;;;;;24.90;17.10;;;;;;;8.45;85.03;100258.84;102255;281;114953;-60
2023/03/21 02:53:51;;;;;;;25.50;16.60;;;;;;;8.44;85.27;100257.45;102461;279;96496;-59
2023/03/21 02:56:27;;;;;;;25.50;16.50;;;;;;;8.45;85.18;100261.16;102497;279;97314;-59
2023/03/21 02:59:10;;;;;;;23.80;16.60;;;;;;;8.46;85.14;100257.65;102455;279;120291;-58
2023/03/21 03:01:50;;;;;;;24.30;15.50;;;;;;;8.49;85.09;100260.89;102435;279;105456;-59
2023/03/21 03:04:28;;;;;;;24.00;16.10;;;;;;;8.50;85.07;100264.69;102408;279;114320;-58
2023/03/21 03:07:29;;;;;;;24.10;16.30;;;;;;;8.50;85.04;100265.42;102465;279;94763;-59
2023/03/21 03:10:23;;;;;;;23.30;15.90;;;;;;;8.53;84.92;100265.60;102463;279;96929;-54
2023/03/21 03:13:15;;;;;;;22.10;16.10;;;;;;;8.50;85.09;100272.77;102413;279;120626;-54
2023/03/21 03:16:04;;;;;;;22.20;14.70;;;;;;;8.51;84.92;100271.13;102445;279;103199;-55
2023/03/21 03:18:50;;;;;;;22.30;16.10;;;;;;;8.49;85.06;100269.86;102454;279;113688;-54
2023/03/21 03:21:33;;;;;;;20.00;14.80;;;;;;;8.47;85.07;100273.34;102500;278;97244;-53
2023/03/21 03:24:15;;;;;;;21.20;14.90;;;;;;;8.48;84.93;100276.14;102523;278;97458;-53
2023/03/21 03:27:02;;;;;;;21.10;15.00;;;;;;;8.51;84.90;100278.79;102550;279;119488;-53
2023/03/21 03:29:43;;;;;;;;;;;;;;;8.51;84.98;100277.91;102521;278;104535;-59
2023/03/21 03:32:24;;;;;;;23.20;15.50;;;;;;;8.41;85.21;100278.68;102568;279;113567;-60
2023/03/21 03:34:59;;;;;;;21.70;14.70;;;;;;;8.45;85.19;100270.31;102538;279;96808;-55
2023/03/21 03:37:36;;;;;;;20.20;14.60;;;;;;;8.45;85.13;100272.13;102557;267;97763;-55
2023/03/21 03:40:21;;;;;;;22.80;16.80;;;;;;;8.46;84.97;100272.39;102542;278;121055;-57
2023/03/21 03:43:05;;;;;;;22.70;15.50;;;;;;;8.45;84.93;100278.11;102516;278;105666;-56
2023/03/21 03:45:48;;;;;;;23.80;16.10;;;;;;;8.43;84.99;100281.20;102535;267;113588;-54
2023/03/21 03:48:37;;;;;;;22.40;15.90;;;;;;;8.43;84.87;100283.15;102514;279;96388;-53
2023/03/21 03:51:21;;;;;;;21.10;14.80;;;;;;;8.45;84.87;100289.76;102514;278;98081;-57
2023/03/21 03:54:05;;;;;;;22.50;16.50;;;;;;;8.41;85.05;100283.42;102495;279;121084;-56
2023/03/21 03:56:48;;;;;;;22.70;15.30;;;;;;;8.37;85.19;100281.46;102536;279;106144;-54
2023/03/21 03:59:27;;;;;;;19.20;14.80;;;;;;;8.40;85.19;100282.30;102522;279;115554;-54
2023/03/21 04:02:03;;;;;;;20.50;15.60;;;;;;;8.40;85.13;100282.30;102510;278;95734;-55
2023/03/21 04:04:51;;;;;;;18.40;13.90;;;;;;;8.39;85.26;100285.19;102528;279;95945;-57
2023/03/21 04:07:26;;;;;;;20.80;14.70;;;;;;;8.31;85.35;100284.54;102507;279;119991;-58
2023/03/21 04:10:03;;;;;;;22.10;15.40;;;;;;;8.31;85.35;100282.08;102493;279;105765;-55
2023/03/21 04:12:41;;;;;;;24.60;15.70;;;;;;;8.33;85.26;100285.06;102477;278;113024;-58
2023/03/21 04:15:17;;;;;;;24.20;17.40;;;;;;;8.34;85.40;100283.85;102405;279;96343;-59
2023/03/21 04:17:52;;;;;;;22.50;18.80;;;;;;;8.31;85.50;100285.07;102556;278;96139;-60
2023/03/21 04:20:25;;;;;;;;;;;;;;;8.33;85.42;100281.97;102571;278;120711;-56
2023/03/21 04:23:02;;;;;;;25.60;16.80;;;;;;;8.34;85.57;100280.38;102551;278;105554;-54
2023/03/21 04:25:43;;;;;;;22.10;15.80;;;;;;;8.35;85.57;100280.20;102514;278;114926;-58
2023/03/21 04:28:20;;;;;;;23.60;15.60;;;;;;;8.34;85.57;100282.58;102522;282;96832;-59
2023/03/21 04:31:00;;;;;;;22.20;15.40;;;;;;;8.33;85.57;100284.33;102535;278;97680;-59
2023/03/21 04:33:42;;;;;;;20.10;14.80;;;;;;;8.31;85.54;100283.52;102555;278;119211;-58
2023/03/21 04:36:26;;;;;;;19.80;14.80;;;;;;;8.30;85.59;100283.89;102556;278;105281;-54
2023/03/21 04:39:11;;;;;;;18.70;14.60;;;;;;;8.33;85.31;100282.23;102528;278;113645;-55
2023/03/21 04:41:51;;;;;;;19.50;14.60;;;;;;;8.33;85.46;100280.80;102490;278;95370;-58
2023/03/21 04:44:26;;;;;;;19.20;13.90;;;;;;;8.29;85.80;100287.14;102525;278;96404;-58
2023/03/21 04:47:00;;;;;;;19.80;13.90;;;;;;;8.27;85.61;100284.65;102504;278;120965;-59
2023/03/21 04:49:34;;;;;;;18.10;14.00;;;;;;;8.28;85.72;100283.80;102592;278;106004;-53
2023/03/21 04:52:09;;;;;;;17.70;13.60;;;;;;;8.31;85.47;100281.48;102436;279;114911;-58
2023/03/21 04:54:49;;;;;;;18.40;13.60;;;;;;;8.36;85.43;100288.47;102490;278;94175;-58
2023/03/21 04:57:24;;;;;;;18.90;13.80;;;;;;;8.36;85.50;100291.53;102540;279;98146;-59
2023/03/21 05:00:00;;;;;;;18.10;13.50;;;;;;;8.31;85.55;100291.86;102495;279;120430;-54
2023/03/21 05:02:37;;;;;;;18.90;13.30;;;;;;;8.30;85.64;100288.04;102524;275;104999;-58
2023/03/21 05:05:13;;;;;;;17.10;13.50;;;;;;;8.32;85.54;100292.91;102578;279;113004;-58
2023/03/21 05:07:50;;;;;;;17.90;13.30;;;;;;;8.30;85.50;100295.41;102492;279;95191;-58
2023/03/21 05:10:29;;;;;;;18.10;13.80;;;;;;;8.30;85.66;100298.17;102520;279;97584;-59
2023/03/21 05:13:04;;;;;;;24.10;13.80;;;;;;;8.32;85.61;100292.52;102515;279;120964;-58
2023/03/21 05:15:39;;;;;;;;;;;;;;;8.33;85.46;100295.83;102561;279;104863;-55
2023/03/21 05:18:14;;;;;;;;;;;;;;;8.31;85.53;100297.99;102486;279;114319;-57
2023/03/21 05:20:52;;;;;;;17.50;12.40;;;;;;;8.30;85.64;100297.55;102515;279;97158;-58
2023/03/21 05:23:37;;;;;;;16.20;12.00;;;;;;;8.32;85.82;100305.66;102491;279;96122;-57
2023/03/21 05:26:18;;;;;;;18.00;11.90;;;;;;;8.36;85.65;100309.48;102514;279;122295;-54
2023/03/21 05:28:59;;;;;;;16.70;13.20;;;;;;;8.37;85.48;100305.90;102540;279;105391;-57
2023/03/21 05:31:36;;;;;;;17.90;13.00;;;;;;;8.38;85.66;100305.65;102489;279;111975;-54
2023/03/21 05:34:20;;;;;;;17.40;13.00;;;;;;;8.41;85.66;100308.92;102529;279;93881;-55
2023/03/21 05:37:06;;;;;;;18.90;13.70;;;;;;;8.40;85.77;100310.23;102462;279;97264;-54
2023/03/21 05:39:41;;;;;;;17.20;12.70;;;;;;;8.43;85.62;100312.59;102514;279;118537;-57
2023/03/21 05:42:27;;;;;;;17.20;12.60;;;;;;;8.46;85.57;100315.06;102426;279;105683;-58
2023/03/21 05:45:08;;;;;;;17.80;12.80;;;;;;;8.50;85.56;100320.42;102431;279;114276;-54
2023/03/21 05:47:45;;;;;;;15.80;12.50;;;;;;;8.52;85.64;100317.78;102477;279;95981;-53
2023/03/21 05:50:24;;;;;;;16.90;13.20;;;;;;;8.59;85.66;100320.02;102518;279;95799;-59
2023/03/21 05:53:04;;;;;;;17.20;12.90;;;;;;;8.63;85.65;100327.77;102458;279;120076;-59
2023/03/21 05:55:47;;;;;;;20.40;13.50;;;;;;;8.64;85.77;100329.30;102321;279;104509;-52
2023/03/21 05:58:24;;;;;;;15.70;12.50;;;;;;;8.65;85.65;100331.00;102478;279;114017;-55
2023/03/21 06:01:07;;;;;;;18.90;12.90;;;;;;;8.69;85.63;100327.06;102314;280;95618;-59
2023/03/21 06:03:43;;;;;;;18.20;13.60;;;;;;;8.68;85.62;100335.63;102473;279;95455;-58
2023/03/21 06:06:18;;;;;;;20.30;13.30;;;;;;;8.65;85.58;100336.30;102538;279;121515;-59
2023/03/21 06:08:55;;;;;;;20.10;13.90;;;;;;;8.66;85.63;100343.10;102465;279;106099;-59
2023/03/21 06:11:34;;;;;;;21.00;13.80;;;;;;;8.70;85.46;100342.23;102475;279;114335;-54
2023/03/21 06:14:15;;;;;;;16.50;12.40;;;;;;;8.69;85.33;100347.52;102511;279;94763;-54
2023/03/21 06:16:52;;;;;;;19.10;14.20;;;;;;;8.69;85.37;100347.06;102514;279;95769;-53
2023/03/21 06:19:27;;;;;;;15.30;12.30;;;;;;;8.67;85.47;100343.80;102473;279;121312;-58
2023/03/21 06:22:04;;;;;;;15.70;12.20;;;;;;;8.69;85.63;100345.02;102459;279;106285;-59
2023/03/21 06:24:43;;;;;;;16.70;12.40;;;;;;;8.72;85.58;100349.86;102466;279;113178;-53
2023/03/21 06:27:19;;;;;;;20.80;13.50;;;;;;;8.73;85.37;100351.57;102406;279;97379;-53
2023/03/21 06:29:58;;;;;;;17.70;12.30;;;;;;;8.74;85.46;100348.44;102452;279;96474;-53
2023/03/21 06:32:33;;;;;;;16.10;11.50;;;;;;;8.72;85.48;100353.36;102407;279;120675;-53
2023/03/21 06:35:10;;;;;;;16.60;12.00;;;;;;;8.73;85.45;100352.98;102522;279;104616;-58
2023/03/21 06:37:52;;;;;;;14.70;11.10;;;;;;;8.79;85.29;100355.94;102514;279;114716;-58
2023/03/21 06:40:39;;;;;;;14.40;10.50;;;;;;;8.83;85.26;100357.44;102515;279;92493;-54
2023/03/21 06:43:20;;;;;;;13.70;10.40;;;;;;;8.80;85.11;100355.20;102498;279;96454;-54
2023/03/21 06:45:54;;;;;;;13.70;10.70;;;;;;;8.76;85.09;100357.30;102515;279;119006;-55
2023/03/21 06:48:33;;;;;;;17.80;11.80;;;;;;;8.69;85.24;100359.61;102531;279;105422;-54
2023/03/21 06:51:13;;;;;;;14.90;10.60;;;;;;;8.67;85.45;100362.52;102550;279;114476;-58
2023/03/21 06:53:57;;;;;;;14.60;10.60;;;;;;;8.70;85.44;100368.39;102535;279;95485;-56
2023/03/21 06:56:33;;;;;;;13.50;10.10;;;;;;;8.71;85.40;100367.73;102537;279;97135;-59
2023/03/21 06:59:13;;;;;;;12.80;10.60;;;;;;;8.74;85.34;100369.95;102529;279;119494;-57
2023/03/21 07:01:51;;;;;;;14.60;10.40;;;;;;;8.78;85.36;100374.70;102526;279;104267;-52
2023/03/21 07:04:33;;;;;;;12.50;9.90;;;;;;;8.79;85.31;100377.41;102489;279;113756;-55
2023/03/21 07:07:09;;;;;;;12.70;9.50;;;;;;;8.82;85.36;100378.64;102512;279;94750;-56
2023/03/21 07:09:51;;;;;;;14.30;9.90;;;;;;;8.85;85.39;100378.73;102497;279;96548;-54
2023/03/21 07:12:28;;;;;;;13.70;9.70;;;;;;;8.91;85.42;100378.55;102486;279;119635;-55
2023/03/21 07:15:07;;;;;;;12.20;9.30;;;;;;;8.95;85.37;100381.81;102531;279;103559;-59
2023/03/21 07:17:53;;;;;;;12.80;9.50;;;;;;;9.02;85.33;100379.25;102518;279;113082;-59
2023/03/21 07:20:38;;;;;;;12.30;10.20;;;;;;;9.12;85.39;100377.68;102532;279;96587;-60
2023/03/21 07:23:18;;;;;;;11.20;9.00;;;;;;;9.19;85.12;100376.48;102532;279;97578;-60
2023/03/21 07:25:54;;;;;;;10.80;9.10;;;;;;;9.25;85.12;100377.25;102502;279;119818;-60
2023/03/21 07:28:36;;;;;;;11.50;9.40;;;;;;;9.38;85.24;100380.84;102483;279;102966;-59
2023/03/21 07:31:18;;;;;;;11.00;8.80;;;;;;;9.53;85.36;100382.86;102517;278;115266;-60
2023/03/21 07:33:57;;;;;;;12.40;9.50;;;;;;;9.69;85.17;100378.73;102516;279;94045;-60
2023/03/21 07:36:38;;;;;;;12.30;9.70;;;;;;;9.89;85.23;100375.50;102071;279;584845;-56
2023/03/21 07:39:12;;;;;;;12.50;9.90;;;;;;;10.11;85.03;100374.81;102507;279;121030;-57
2023/03/21 07:41:48;;;;;;;12.50;8.70;;;;;;;10.33;84.81;100372.98;102502;279;106101;-56
2023/03/21 07:44:25;;;;;;;11.80;8.90;;;;;;;10.42;84.57;100372.06;102502;279;114580;-61
2023/03/21 07:47:00;;;;;;;11.60;8.10;;;;;;;10.45;84.45;100368.52;102506;279;97108;-60
2023/03/21 07:49:41;;;;;;;11.10;8.80;;;;;;;10.57;84.46;100368.08;102566;279;98201;-60
2023/03/21 07:52:21;;;;;;;10.60;8.50;;;;;;;10.75;84.41;100371.77;102523;279;120160;-61
2023/03/21 07:55:00;;;;;;;10.90;8.60;;;;;;;10.77;83.72;100374.95;102496;279;104741;-55
2023/03/21 07:57:35;;;;;;;10.00;8.10;;;;;;;10.72;83.67;100377.15;102499;278;114524;-55
2023/03/21 08:00:21;;;;;;;11.50;8.10;;;;;;;10.72;83.45;100386.02;102541;279;94153;-56
2023/03/21 08:03:00;;;;;;;10.90;8.70;;;;;;;10.72;83.39;100385.23;102513;279;98055;-55
2023/03/21 08:05:41;;;;;;;9.90;7.80;;;;;;;10.63;83.02;100386.69;102520;279;121161;-55
2023/03/21 08:08:22;;;;;;;10.10;8.20;;;;;;;10.51;82.98;100388.74;102509;279;103582;-54
2023/03/21 08:10:59;;;;;;;9.90;7.40;;;;;;;10.35;82.79;100388.79;102509;279;114065;-56
2023/03/21 08:13:41;;;;;;;9.60;7.50;;;;;;;10.27;82.93;100392.34;102487;279;95901;-56
2023/03/21 08:16:20;;;;;;;10.20;8.00;;;;;;;10.17;82.77;100396.11;102543;279;97325;-57
2023/03/21 08:19:00;;;;;;;10.20;8.50;;;;;;;10.22;83.05;100396.88;102538;279;120636;-58
2023/03/21 08:21:34;;;;;;;9.30;8.10;;;;;;;10.33;83.19;100393.30;102492;279;105261;-59
2023/03/21 08:24:08;;;;;;;;;;;;;;;10.37;83.05;100390.05;102529;279;112179;-56
2023/03/21 08:26:44;;;;;;;10.40;8.60;;;;;;;10.52;83.13;100390.59;102502;278;94664;-55
2023/03/21 08:29:27;;;;;;;9.10;7.00;;;;;;;10.74;83.24;100387.73;102469;279;97925;-56
2023/03/21 08:32:06;;;;;;;8.40;7.30;;;;;;;10.96;83.15;100387.13;102482;279;120661;-56
2023/03/21 08:34:43;;;;;;;9.60;7.90;;;;;;;11.33;83.10;100386.33;102526;279;105407;-60
2023/03/21 08:37:21;;;;;;;10.00;7.50;;;;;;;11.87;82.88;100388.85;102512;278;114576;-60
2023/03/21 08:39:58;;;;;;;10.70;8.20;;;;;;;12.20;82.03;100393.55;102526;279;93254;-54
2023/03/21 08:42:38;;;;;;;10.00;8.40;;;;;;;12.26;81.49;100391.75;102515;279;98129;-55
2023/03/21 08:45:17;;;;;;;7.50;6.70;;;;;;;12.23;81.06;100395.15;102507;279;120461;-59
2023/03/21 08:47:58;;;;;;;8.30;7.00;;;;;;;12.03;80.63;100398.04;102499;279;105014;-59
2023/03/21 08:50:36;;;;;;;9.70;7.90;;;;;;;11.90;80.23;100403.89;102535;279;114541;-56
2023/03/21 08:53:11;;;;;;;10.30;8.00;;;;;;;11.75;80.01;100408.91;102516;279;94299;-55
2023/03/21 08:55:49;;;;;;;12.90;9.00;;;;;;;11.68;80.00;100411.19;102549;279;97682;-61
2023/03/21 08:58:30;;;;;;;10.20;7.90;;;;;;;11.60;79.76;100416.00;102521;279;120482;-60
2023/03/21 09:01:11;;;;;;;10.60;7.80;;;;;;;11.48;79.61;100416.85;102519;279;104820;-59
2023/03/21 09:03:49;;;;;;;9.20;7.70;;;;;;;11.43;79.33;100419.34;102487;279;114276;-60
2023/03/21 09:06:28;;;;;;;8.70;7.20;;;;;;;11.22;79.51;100422.27;102494;279;94916;-55
2023/03/21 09:09:18;;;;;;;10.00;7.70;;;;;;;11.14;79.72;100422.59;102569;279;96686;-59
2023/03/21 09:11:58;;;;;;;8.90;7.60;;;;;;;11.10;79.82;100423.11;102510;279;119399;-59
2023/03/21 09:14:34;;;;;;;8.70;7.20;;;;;;;11.18;79.99;100423.73;102562;279;106000;-56
2023/03/21 09:17:13;;;;;;;9.30;6.90;;;;;;;11.14;80.05;100423.51;102510;279;113770;-56
2023/03/21 09:19:55;;;;;;;7.40;6.30;;;;;;;11.09;79.89;100425.99;102458;279;95184;-55
2023/03/21 09:22:31;;;;;;;8.20;6.70;;;;;;;11.04;79.85;100430.06;102531;279;98176;-55
2023/03/21 09:25:07;;;;;;;8.30;6.70;;;;;;;11.02;79.81;100432.45;102564;279;118206;-60
2023/03/21 09:27:49;;;;;;;7.90;6.70;;;;;;;10.83;79.40;100434.97;102523;267;104424;-59
2023/03/21 09:30:27;;;;;;;7.50;6.50;;;;;;;10.71;79.24;100438.70;102510;279;113376;-59
2023/03/21 09:33:05;;;;;;;9.70;7.10;;;;;;;10.72;79.30;100439.70;102519;279;93287;-59
2023/03/21 09:35:42;;;;;;;7.40;6.50;;;;;;;10.74;79.49;100442.48;102533;279;98210;-59
2023/03/21 09:38:29;;;;;;;8.00;6.40;;;;;;;10.84;79.41;100439.21;102500;279;120882;-60
2023/03/21 09:41:26;;;;;;;7.40;6.50;;;;;;;10.87;79.40;100442.13;102491;279;106059;-61
2023/03/21 09:44:21;;;;;;;8.50;7.00;;;;;;;10.90;79.36;100442.26;102539;279;113879;-60
2023/03/21 09:47:05;;;;;;;8.40;7.00;;;;;;;10.85;79.41;100441.08;102530;279;93235;-59
2023/03/21 09:49:47;;;;;;;7.90;6.90;;;;;;;10.81;79.25;100441.56;102511;279;97272;-56
2023/03/21 09:52:25;;;;;;;9.00;7.20;;;;;;;10.74;79.34;100441.98;102318;279;119257;-56
2023/03/21 09:55:18;;;;;;;8.20;7.00;;;;;;;10.67;79.46;100438.60;102562;279;105501;-56
2023/03/21 09:58:08;;;;;;;8.00;6.70;;;;;;;10.65;79.30;100445.23;102510;279;114437;-56
2023/03/21 10:00:52;;;;;;;10.60;7.20;;;;;;;10.59;79.27;100446.86;102533;279;97058;-54
2023/03/21 10:03:35;;;;;;;8.80;7.20;;;;;;;10.52;79.25;100448.25;102519;279;96370;-55
2023/03/21 10:06:15;;;;;;;9.00;7.60;;;;;;;10.47;79.29;100452.61;102511;279;121370;-56
2023/03/21 10:08:54;;;;;;;8.70;6.90;;;;;;;10.30;79.51;100456.70;102405;280;107246;-56
2023/03/21 10:11:32;;;;;;;6.40;5.40;;;;;;;10.11;79.82;100464.65;102542;279;112901;-59
2023/03/21 10:14:19;;;;;;;5.20;4.50;;;;;;;9.97;80.18;100467.38;102543;279;93730;-56
2023/03/21 10:17:00;;;;;;;5.40;4.50;;;;;;;9.84;80.28;100468.27;102525;279;98386;-56
2023/03/21 10:19:45;;;;;;;5.80;4.40;;;;;;;9.90;80.47;100466.80;102543;279;121268;-55
2023/03/21 10:22:22;;;;;;;;;;;;;;;9.90;80.66;100465.59;102500;279;105321;-55
2023/03/21 10:25:02;;;;;;;5.50;4.10;;;;;;;10.09;80.95;100463.97;102531;279;114011;-60
2023/03/21 10:27:40;;;;;;;5.80;4.60;;;;;;;10.36;81.37;100461.09;102516;267;96035;-60
2023/03/21 10:30:39;;;;;;;7.70;5.10;;;;;;;10.61;81.49;100461.59;102537;279;98156;-56
2023/03/21 10:33:19;;;;;;;7.10;5.40;;;;;;;10.90;81.69;100459.60;102546;279;118428;-56
2023/03/21 10:35:59;;;;;;;7.00;4.30;;;;;;;11.18;81.47;100460.16;102530;267;104736;-60
2023/03/21 10:38:34;;;;;;;5.40;4.70;;;;;;;11.36;81.49;100461.21;102525;279;112515;-61
2023/03/21 10:41:12;;;;;;;5.20;4.50;;;;;;;11.54;81.14;100459.70;102539;279;94898;-56
2023/03/21 10:44:04;;;;;;;5.40;4.40;;;;;;;11.73;80.87;100460.89;102532;279;98173;-56
2023/03/21 10:46:52;;;;;;;6.10;5.10;;;;;;;11.82;80.47;100460.61;102494;279;120995;-55
2023/03/21 10:49:32;;;;;;;5.70;4.70;;;;;;;11.89;80.44;100459.27;102514;279;105521;-60
2023/03/21 10:52:11;;;;;;;5.30;4.80;;;;;;;11.89;80.49;100459.56;102496;279;113764;-59
2023/03/21 10:55:05;;;;;;;6.40;5.20;;;;;;;11.86;80.12;100458.01;102559;279;94909;-54
2023/03/21 10:57:43;;;;;;;6.30;5.40;;;;;;;11.85;80.25;100460.41;102530;279;96506;-54
2023/03/21 11:00:28;;;;;;;5.90;4.80;;;;;;;11.93;80.43;100460.01;102354;280;120705;-55
2023/03/21 11:03:05;;;;;;;5.60;5.00;;;;;;;11.87;80.00;100461.67;102531;279;104853;-56
2023/03/21 11:05:41;;;;;;;6.30;5.60;;;;;;;11.97;80.03;100458.91;102520;267;114741;-56
2023/03/21 11:08:23;;;;;;;6.00;4.90;;;;;;;12.16;79.79;100457.30;102519;279;94687;-56
2023/03/21 11:11:04;;;;;;;6.50;5.40;;;;;;;12.33;79.57;100453.63;102532;279;97316;-54
2023/03/21 11:13:44;;;;;;;5.80;5.20;;;;;;;12.44;79.44;100450.94;102541;279;120778;-53
2023/03/21 11:16:33;;;;;;;6.30;5.20;;;;;;;12.47;79.44;100448.75;102551;279;105433;-59
2023/03/21 11:19:26;;;;;;;5.90;5.10;;;;;;;12.50;79.28;100449.81;102503;279;114143;-60
2023/03/21 11:22:14;;;;;;;6.10;5.40;;;;;;;12.49;79.26;100454.52;102464;279;95172;-58
2023/03/21 11:25:00;;;;;;;5.80;4.80;;;;;;;12.64;79.23;100449.52;102535;279;98407;-60
2023/03/21 11:27:37;;;;;;;5.70;5.00;;;;;;;12.92;78.70;100448.45;102520;279;120220;-60
2023/03/21 11:30:25;;;;;;;5.90;5.30;;;;;;;13.32;77.53;100448.55;102523;278;106240;-55
2023/03/21 11:33:06;;;;;;;5.30;4.70;;;;;;;13.51;77.11;100449.59;102505;279;113803;-54
2023/03/21 11:35:43;;;;;;;6.50;5.80;;;;;;;13.50;76.55;100447.95;102490;279;94815;-56
2023/03/21 11:38:33;;;;;;;5.90;5.10;;;;;;;13.21;76.55;100446.89;102561;278;99947;-55
2023/03/21 11:41:25;;;;;;;6.40;5.20;;;;;;;12.96;76.59;100444.03;102527;279;120947;-61
2023/03/21 11:44:06;;;;;;;5.80;5.00;;;;;;;12.77;76.45;100444.52;102526;279;105537;-58
2023/03/21 11:46:45;;;;;;;5.80;5.20;;;;;;;12.72;76.16;100442.57;102543;279;115015;-58
2023/03/21 11:49:28;;;;;;;5.90;4.60;;;;;;;12.64;76.44;100442.83;102519;279;93614;-55
2023/03/21 11:52:24;;;;;;;5.80;5.00;;;;;;;12.62;76.36;100441.13;102554;279;96936;-56
2023/03/21 11:55:37;;;;;;;4.90;4.30;;;;;;;12.66;76.26;100443.52;102529;267;121039;-60
2023/03/21 11:58:33;;;;;;;5.80;4.80;;;;;;;12.69;76.33;100441.02;102559;279;105360;-60
2023/03/21 12:01:20;;;;;;;5.90;5.20;;;;;;;12.59;75.96;100442.98;102524;279;113807;-58
2023/03/21 12:04:40;;;;;;;6.10;5.50;;;;;;;12.63;75.99;100438.73;102558;278;94537;-56
2023/03/21 12:07:36;;;;;;;5.10;4.30;;;;;;;12.70;75.76;100439.89;102543;279;97435;-55
2023/03/21 12:10:42;;;;;;;5.50;5.00;;;;;;;12.68;75.83;100441.63;102515;279;119383;-55
2023/03/21 12:13:49;;;;;;;5.60;5.00;;;;;;;12.63;75.43;100436.04;102518;279;106328;-54
2023/03/21 12:16:34;;;;;;;;;;;;;;;12.56;75.43;100440.20;102538;279;113892;-56
2023/03/21 12:19:48;;;;;;;5.50;4.60;;;;;;;12.48;75.33;100436.50;102565;279;94754;-55
2023/03/21 12:22:37;;;;;;;6.50;5.30;;;;;;;12.41;75.13;100434.00;102310;279;98330;-54
2023/03/21 12:25:24;;;;;;;5.30;4.60;;;;;;;12.36;75.14;100426.98;102510;279;120675;-58
2023/03/21 12:28:08;;;;;;;;;;;;;;;12.45;74.95;100423.60;102316;279;107486;-54